createdAt,value
2023-05-16T00:00:06.840Z,14.90
2023-05-16T00:02:36.152Z,14.90
2023-05-16T00:05:07.800Z,15.00
2023-05-16T00:07:36.514Z,14.90
2023-05-16T00:10:05.111Z,14.90
2023-05-16T00:12:34.021Z,14.90
2023-05-16T00:15:02.438Z,14.90
2023-05-16T00:17:30.705Z,14.80
2023-05-16T00:20:00.228Z,14.80
2023-05-16T00:22:30.299Z,14.80
2023-05-16T00:24:58.613Z,14.70
2023-05-16T00:27:27.025Z,14.70
2023-05-16T00:29:55.397Z,14.70
2023-05-16T00:32:23.987Z,14.70
2023-05-16T00:34:52.401Z,14.70
2023-05-16T00:37:22.385Z,14.60
2023-05-16T00:39:52.116Z,14.70
2023-05-16T00:42:21.901Z,14.70
2023-05-16T00:44:50.392Z,14.70
2023-05-16T00:47:18.972Z,14.60
2023-05-16T00:49:47.300Z,14.50
2023-05-16T00:52:17.886Z,14.50
2023-05-16T00:54:47.664Z,14.40
2023-05-16T00:57:17.616Z,14.30
2023-05-16T00:59:47.278Z,14.60
2023-05-16T01:02:16.044Z,14.30
2023-05-16T01:04:44.879Z,14.20
2023-05-16T01:07:13.443Z,14.20
2023-05-16T01:09:41.919Z,14.20
2023-05-16T01:12:15.831Z,14.20
2023-05-16T01:14:53.492Z,14.20
2023-05-16T01:17:30.546Z,14.20
2023-05-16T01:20:08.158Z,14.20
2023-05-16T01:22:49.043Z,14.20
2023-05-16T01:25:33.112Z,14.20
2023-05-16T01:28:03.628Z,14.20
2023-05-16T01:30:36.343Z,14.20
2023-05-16T01:33:05.047Z,14.20
2023-05-16T01:35:34.291Z,14.20
2023-05-16T01:38:12.038Z,14.20
2023-05-16T01:40:54.237Z,14.20
2023-05-16T01:43:31.886Z,14.20
2023-05-16T01:46:06.402Z,14.20
2023-05-16T01:48:40.147Z,14.20
2023-05-16T01:51:08.895Z,14.20
2023-05-16T01:53:39.967Z,14.10
2023-05-16T01:56:12.550Z,14.10
2023-05-16T01:58:43.541Z,14.10
2023-05-16T02:01:14.015Z,14.10
2023-05-16T02:03:42.490Z,14.00
2023-05-16T02:06:10.788Z,14.10
2023-05-16T02:08:39.043Z,14.00
2023-05-16T02:11:07.391Z,14.00
2023-05-16T02:13:35.672Z,14.00
2023-05-16T02:16:06.881Z,13.90
2023-05-16T02:18:36.804Z,13.90
2023-05-16T02:21:06.840Z,13.90
2023-05-16T02:23:35.184Z,13.90
2023-05-16T02:26:03.503Z,14.00
2023-05-16T02:28:32.091Z,13.90
2023-05-16T02:31:00.784Z,13.90
2023-05-16T02:33:30.705Z,14.00
2023-05-16T02:35:59.041Z,13.90
2023-05-16T02:38:27.799Z,13.90
2023-05-16T02:40:57.653Z,13.80
2023-05-16T02:43:25.997Z,13.80
2023-05-16T02:45:54.360Z,13.70
2023-05-16T02:48:22.759Z,13.70
2023-05-16T02:50:53.171Z,13.70
2023-05-16T02:53:21.501Z,13.70
2023-05-16T02:55:49.778Z,13.70
2023-05-16T02:58:18.230Z,13.60
2023-05-16T03:00:46.510Z,13.70
2023-05-16T03:03:14.950Z,13.60
2023-05-16T03:05:43.296Z,13.70
2023-05-16T03:08:13.084Z,13.70
2023-05-16T03:10:41.508Z,13.70
2023-05-16T03:13:09.832Z,13.70
2023-05-16T03:15:39.069Z,13.60
2023-05-16T03:18:07.933Z,13.60
2023-05-16T03:20:36.284Z,13.50
2023-05-16T03:23:07.731Z,13.40
2023-05-16T03:25:39.457Z,13.30
2023-05-16T03:28:08.167Z,13.30
2023-05-16T03:30:36.703Z,13.30
2023-05-16T03:33:05.613Z,13.20
2023-05-16T03:35:35.833Z,13.20
2023-05-16T03:38:04.595Z,13.20
2023-05-16T03:40:32.995Z,13.20
2023-05-16T03:43:02.883Z,13.20
2023-05-16T03:45:31.637Z,13.20
2023-05-16T03:48:00.365Z,13.10
2023-05-16T03:50:28.831Z,13.20
2023-05-16T03:52:57.153Z,13.20
2023-05-16T03:55:25.793Z,13.10
2023-05-16T03:57:54.620Z,13.20
2023-05-16T04:00:24.369Z,13.10
2023-05-16T04:02:52.997Z,13.10
2023-05-16T04:05:21.770Z,13.20
2023-05-16T04:07:50.065Z,13.10
2023-05-16T04:10:18.447Z,13.10
2023-05-16T04:12:46.909Z,13.20
2023-05-16T04:15:15.267Z,13.10
2023-05-16T04:17:44.959Z,13.10
2023-05-16T04:20:13.542Z,13.10
2023-05-16T04:22:41.931Z,13.10
2023-05-16T04:25:11.252Z,13.10
2023-05-16T04:27:39.770Z,13.20
2023-05-16T04:30:09.774Z,13.10
2023-05-16T04:32:38.289Z,13.10
2023-05-16T04:35:09.210Z,13.10
2023-05-16T04:37:38.098Z,13.10
2023-05-16T04:40:07.861Z,13.10
2023-05-16T04:42:36.305Z,13.10
2023-05-16T04:45:06.756Z,13.10
2023-05-16T04:47:35.241Z,13.10
2023-05-16T04:50:03.854Z,13.10
2023-05-16T04:52:33.835Z,13.00
2023-05-16T04:55:02.457Z,13.00
2023-05-16T04:57:30.851Z,13.00
2023-05-16T04:59:59.251Z,13.10
2023-05-16T05:02:27.655Z,12.90
2023-05-16T05:04:56.075Z,13.00
2023-05-16T05:07:28.094Z,13.00
2023-05-16T05:09:57.762Z,13.00
2023-05-16T05:12:27.216Z,13.00
2023-05-16T05:14:55.940Z,13.00
2023-05-16T05:17:24.556Z,13.00
2023-05-16T05:19:53.169Z,13.00
2023-05-16T05:22:21.480Z,13.10
2023-05-16T05:24:49.868Z,13.00
2023-05-16T05:27:19.553Z,13.10
2023-05-16T05:29:47.907Z,13.10
2023-05-16T05:32:16.223Z,13.10
2023-05-16T05:34:44.609Z,13.10
2023-05-16T05:37:12.881Z,13.10
2023-05-16T05:39:41.275Z,13.10
2023-05-16T05:42:09.609Z,13.10
2023-05-16T05:44:39.514Z,13.10
2023-05-16T05:47:08.840Z,12.90
2023-05-16T05:49:37.212Z,13.00
2023-05-16T05:52:06.196Z,13.10
2023-05-16T05:54:34.899Z,13.10
2023-05-16T05:57:03.218Z,13.00
2023-05-16T05:59:31.592Z,13.00
2023-05-16T06:02:01.709Z,13.00
2023-05-16T06:04:30.048Z,13.10
2023-05-16T06:06:58.443Z,13.00
2023-05-16T06:09:26.769Z,13.00
2023-05-16T06:11:55.259Z,13.00
2023-05-16T06:14:23.630Z,13.00
2023-05-16T06:16:51.995Z,13.00
2023-05-16T06:19:21.846Z,13.00
2023-05-16T06:21:50.254Z,13.00
2023-05-16T06:24:18.570Z,13.10
2023-05-16T06:26:50.097Z,13.10
2023-05-16T06:29:18.682Z,13.10
2023-05-16T06:31:48.171Z,13.10
2023-05-16T06:34:16.589Z,13.10
2023-05-16T06:36:46.345Z,13.10
2023-05-16T06:39:14.873Z,13.10
2023-05-16T06:41:43.219Z,13.10
2023-05-16T06:44:17.533Z,13.10
2023-05-16T06:46:45.986Z,13.20
2023-05-16T06:49:14.408Z,13.10
2023-05-16T06:51:42.720Z,13.10
2023-05-16T06:54:12.599Z,13.10
2023-05-16T06:56:41.147Z,13.10
2023-05-16T06:59:09.732Z,13.10
2023-05-16T07:01:38.205Z,13.10
2023-05-16T07:04:07.030Z,13.20
2023-05-16T07:06:35.553Z,13.20
2023-05-16T07:09:04.734Z,13.20
2023-05-16T07:11:34.547Z,13.20
2023-05-16T07:14:02.944Z,13.20
2023-05-16T07:16:31.410Z,13.20
2023-05-16T07:18:59.887Z,13.20
2023-05-16T07:21:28.315Z,13.20
2023-05-16T07:23:56.756Z,13.20
2023-05-16T07:26:25.128Z,13.20
2023-05-16T07:28:55.421Z,13.20
2023-05-16T07:31:24.311Z,13.20
2023-05-16T07:33:52.922Z,13.20
2023-05-16T07:36:21.311Z,13.20
2023-05-16T07:38:49.750Z,13.20
2023-05-16T07:41:18.100Z,13.20
2023-05-16T07:43:46.521Z,13.20
2023-05-16T07:46:16.463Z,13.20
2023-05-16T07:48:44.906Z,13.20
2023-05-16T07:51:13.548Z,13.30
2023-05-16T07:53:42.084Z,13.30
2023-05-16T07:56:10.947Z,13.30
2023-05-16T07:58:40.053Z,13.30
2023-05-16T08:01:08.886Z,13.30
2023-05-16T08:03:39.053Z,13.30
2023-05-16T08:06:07.924Z,13.30
2023-05-16T08:08:36.528Z,13.20
2023-05-16T08:11:05.786Z,13.20
2023-05-16T08:13:34.368Z,13.20
2023-05-16T08:16:02.860Z,13.20
2023-05-16T08:18:32.410Z,13.20
2023-05-16T08:21:02.334Z,13.10
2023-05-16T08:23:30.757Z,13.10
2023-05-16T08:25:59.560Z,13.10
2023-05-16T08:28:28.047Z,13.10
2023-05-16T08:30:56.500Z,12.70
2023-05-16T08:33:24.944Z,13.10
2023-05-16T08:35:53.960Z,13.20
2023-05-16T08:38:23.678Z,12.90
2023-05-16T08:40:52.112Z,13.20
2023-05-16T08:43:20.561Z,13.30
2023-05-16T08:45:49.047Z,13.20
2023-05-16T08:48:20.538Z,13.30
2023-05-16T08:50:49.010Z,13.30
2023-05-16T08:53:28.157Z,13.30
2023-05-16T08:55:57.315Z,13.40
2023-05-16T08:58:26.905Z,13.40
2023-05-16T09:00:56.227Z,13.40
2023-05-16T09:03:25.857Z,13.40
2023-05-16T09:05:54.294Z,13.40
2023-05-16T09:08:24.480Z,13.40
2023-05-16T09:10:53.177Z,13.50
2023-05-16T09:13:21.561Z,13.50
2023-05-16T09:16:10.085Z,13.60
2023-05-16T09:18:38.743Z,13.60
2023-05-16T09:21:08.106Z,13.70
2023-05-16T09:23:38.387Z,13.70
2023-05-16T09:26:08.096Z,13.80
2023-05-16T09:28:39.458Z,13.80
2023-05-16T09:31:22.916Z,13.70
2023-05-16T09:33:51.441Z,13.80
2023-05-16T09:36:19.979Z,13.80
2023-05-16T09:38:51.169Z,13.80
2023-05-16T09:41:20.209Z,13.90
2023-05-16T09:43:48.718Z,13.90
2023-05-16T09:46:17.473Z,13.90
2023-05-16T09:48:47.501Z,13.90
2023-05-16T09:51:16.472Z,13.90
2023-05-16T09:53:45.211Z,14.00
2023-05-16T09:56:16.498Z,14.00
2023-05-16T09:58:46.567Z,14.00
2023-05-16T10:01:14.946Z,14.10
2023-05-16T10:03:44.275Z,14.20
2023-05-16T10:06:14.524Z,14.20
2023-05-16T10:08:44.292Z,14.20
2023-05-16T10:11:15.290Z,14.10
2023-05-16T10:13:45.030Z,14.10
2023-05-16T10:16:15.135Z,14.20
2023-05-16T10:18:44.492Z,14.30
2023-05-16T10:21:16.805Z,14.20
2023-05-16T10:23:48.685Z,14.10
2023-05-16T10:26:19.327Z,14.10
2023-05-16T10:28:48.133Z,14.10
2023-05-16T10:31:17.176Z,14.10
2023-05-16T10:33:45.805Z,14.10
2023-05-16T10:36:15.706Z,14.10
2023-05-16T10:38:46.219Z,14.10
2023-05-16T10:41:15.011Z,14.10
2023-05-16T10:43:47.465Z,14.00
2023-05-16T10:46:16.043Z,14.00
2023-05-16T10:48:44.487Z,14.10
2023-05-16T10:51:39.819Z,14.10
2023-05-16T10:54:12.699Z,14.20
2023-05-16T10:56:41.464Z,14.20
2023-05-16T10:59:28.529Z,14.30
2023-05-16T11:01:57.706Z,14.30
2023-05-16T11:04:49.884Z,14.30
2023-05-16T11:07:19.278Z,14.40
2023-05-16T11:09:47.780Z,14.40
2023-05-16T11:12:16.257Z,14.50
2023-05-16T11:14:51.846Z,14.50
2023-05-16T11:17:23.593Z,14.50
2023-05-16T11:19:53.293Z,14.50
2023-05-16T11:22:26.795Z,14.60
2023-05-16T11:24:58.215Z,14.50
2023-05-16T11:27:29.429Z,14.50
2023-05-16T11:30:15.578Z,14.50
2023-05-16T11:32:47.141Z,14.50
2023-05-16T11:35:17.085Z,14.40
2023-05-16T11:37:47.106Z,14.40
2023-05-16T11:40:17.364Z,14.40
2023-05-16T11:42:47.617Z,14.40
2023-05-16T11:45:19.388Z,14.40
2023-05-16T11:47:49.390Z,14.50
2023-05-16T11:50:18.909Z,14.40
2023-05-16T11:52:49.157Z,14.40
2023-05-16T11:55:28.164Z,14.40
2023-05-16T11:58:08.187Z,14.40
2023-05-16T12:00:38.122Z,14.50
2023-05-16T12:03:08.166Z,14.50
2023-05-16T12:05:36.840Z,14.50
2023-05-16T12:08:06.773Z,14.50
2023-05-16T12:10:35.332Z,14.60
2023-05-16T12:13:04.664Z,14.60
2023-05-16T12:15:33.135Z,14.60
2023-05-16T12:18:03.506Z,14.70
2023-05-16T12:20:32.220Z,14.70
2023-05-16T12:23:00.914Z,14.70
2023-05-16T12:25:32.166Z,14.80
2023-05-16T12:28:01.912Z,14.80
2023-05-16T12:30:32.621Z,14.80
2023-05-16T12:33:07.919Z,14.90
2023-05-16T12:35:39.363Z,14.90
2023-05-16T12:38:08.752Z,14.90
2023-05-16T12:40:39.552Z,15.00
2023-05-16T12:43:14.841Z,15.20
2023-05-16T12:45:44.451Z,15.00
2023-05-16T12:48:17.256Z,15.10
2023-05-16T12:50:46.480Z,15.10
2023-05-16T12:53:15.962Z,15.10
2023-05-16T12:55:45.171Z,15.10
2023-05-16T12:58:15.583Z,15.10
2023-05-16T13:00:44.055Z,15.10
2023-05-16T13:03:12.470Z,15.10
2023-05-16T13:05:42.418Z,15.10
2023-05-16T13:08:10.915Z,15.10
2023-05-16T13:10:39.521Z,15.10
2023-05-16T13:13:08.348Z,15.20
2023-05-16T13:15:38.451Z,15.20
2023-05-16T13:18:06.999Z,15.20
2023-05-16T13:20:35.480Z,15.20
2023-05-16T13:23:05.473Z,15.20
2023-05-16T13:25:35.145Z,15.20
2023-05-16T13:28:03.820Z,15.20
2023-05-16T13:30:32.521Z,15.20
2023-05-16T13:33:00.970Z,15.20
2023-05-16T13:35:29.811Z,15.30
2023-05-16T13:37:58.327Z,15.20
2023-05-16T13:40:29.521Z,15.20
2023-05-16T13:42:58.193Z,15.20
2023-05-16T13:45:27.852Z,15.30
2023-05-16T13:47:56.530Z,15.30
2023-05-16T13:50:24.954Z,15.40
2023-05-16T13:52:53.319Z,15.40
2023-05-16T13:55:21.934Z,15.40
2023-05-16T13:57:51.660Z,15.40
2023-05-16T14:02:52.949Z,15.40
2023-05-16T14:05:21.543Z,15.30
2023-05-16T14:07:50.367Z,15.20
2023-05-16T14:10:18.822Z,15.20
2023-05-16T14:12:47.249Z,15.30
2023-05-16T14:15:17.020Z,15.30
2023-05-16T14:17:45.923Z,15.40
2023-05-16T14:20:15.537Z,15.30
2023-05-16T14:22:43.913Z,15.30
2023-05-16T14:25:12.395Z,15.30
2023-05-16T14:27:41.466Z,15.30
2023-05-16T14:30:11.186Z,15.20
2023-05-16T14:32:41.154Z,15.20
2023-05-16T14:35:10.598Z,15.20
2023-05-16T14:37:39.147Z,15.20
2023-05-16T14:40:09.182Z,15.10
2023-05-16T14:42:37.582Z,15.10
2023-05-16T14:45:06.816Z,15.10
2023-05-16T14:47:35.633Z,15.10
2023-05-16T14:50:06.107Z,15.10
2023-05-16T14:52:34.786Z,15.00
2023-05-16T14:55:03.472Z,15.00
2023-05-16T14:57:32.012Z,15.00
2023-05-16T15:00:00.307Z,15.00
2023-05-16T15:02:28.739Z,15.00
2023-05-16T15:04:57.330Z,15.00
2023-05-16T15:07:27.374Z,15.00
2023-05-16T15:09:58.394Z,15.00
2023-05-16T15:12:26.833Z,15.00
2023-05-16T15:14:55.503Z,14.80
2023-05-16T15:17:24.107Z,15.10
2023-05-16T15:19:54.319Z,15.10
2023-05-16T15:22:23.150Z,15.10
2023-05-16T15:24:52.970Z,15.10
2023-05-16T15:27:21.836Z,15.10
2023-05-16T15:29:50.310Z,15.10
2023-05-16T15:32:18.900Z,15.10
2023-05-16T15:34:47.413Z,15.10
2023-05-16T15:37:15.835Z,15.20
2023-05-16T15:39:44.697Z,15.10
2023-05-16T15:42:14.512Z,15.10
2023-05-16T15:44:42.996Z,15.10
2023-05-16T15:47:11.387Z,15.10
2023-05-16T15:49:40.720Z,15.10
2023-05-16T15:52:09.734Z,15.00
2023-05-16T15:54:38.311Z,15.00
2023-05-16T15:57:06.975Z,15.00
2023-05-16T15:59:36.871Z,15.00
2023-05-16T16:02:05.599Z,15.10
2023-05-16T16:04:34.217Z,15.10
2023-05-16T16:07:03.712Z,15.10
2023-05-16T16:09:32.043Z,15.10
2023-05-16T16:12:00.616Z,15.10
2023-05-16T16:14:29.169Z,15.10
2023-05-16T16:16:58.863Z,15.10
2023-05-16T16:19:27.358Z,15.00
2023-05-16T16:21:56.606Z,15.00
2023-05-16T16:24:25.224Z,15.00
2023-05-16T16:26:53.707Z,15.10
2023-05-16T16:29:22.099Z,15.10
2023-05-16T16:31:50.654Z,15.10
2023-05-16T16:34:23.077Z,15.10
2023-05-16T16:36:51.791Z,15.10
2023-05-16T16:39:20.172Z,15.20
2023-05-16T16:41:48.487Z,15.20
2023-05-16T16:44:16.958Z,15.20
2023-05-16T16:46:45.413Z,15.20
2023-05-16T16:49:13.843Z,15.20
2023-05-16T16:51:43.634Z,15.20
2023-05-16T16:54:11.955Z,15.20
2023-05-16T16:56:40.357Z,15.10
2023-05-16T16:59:08.690Z,15.10
2023-05-16T17:01:37.139Z,15.00
2023-05-16T17:04:05.781Z,15.00
2023-05-16T17:06:34.441Z,15.00
2023-05-16T17:09:06.731Z,15.00
2023-05-16T17:11:36.407Z,14.90
2023-05-16T17:14:06.299Z,14.80
2023-05-16T17:16:35.249Z,14.80
2023-05-16T17:19:04.895Z,14.90
2023-05-16T17:21:34.643Z,14.90
2023-05-16T17:24:04.989Z,14.90
2023-05-16T17:26:33.401Z,14.90
2023-05-16T17:29:02.626Z,14.90
2023-05-16T17:31:31.243Z,14.90
2023-05-16T17:33:59.742Z,14.80
2023-05-16T17:36:28.109Z,14.80
2023-05-16T17:38:56.611Z,14.80
2023-05-16T17:41:26.443Z,14.80
2023-05-16T17:43:54.890Z,14.80
2023-05-16T17:46:23.375Z,14.80
2023-05-16T17:48:51.814Z,14.80
2023-05-16T17:51:20.217Z,14.40
2023-05-16T17:53:50.386Z,14.80
2023-05-16T17:56:18.943Z,14.80
2023-05-16T17:58:48.597Z,14.80
2023-05-16T18:01:16.979Z,14.70
2023-05-16T18:03:45.950Z,14.80
2023-05-16T18:06:14.620Z,14.70
2023-05-16T18:08:43.018Z,14.70
2023-05-16T18:11:11.773Z,14.70
2023-05-16T18:13:40.381Z,14.70
2023-05-16T18:16:10.593Z,14.80
2023-05-16T18:18:39.198Z,14.70
2023-05-16T18:21:07.707Z,14.70
2023-05-16T18:23:36.542Z,14.70
2023-05-16T18:26:04.969Z,14.70
2023-05-16T18:28:33.525Z,14.70
2023-05-16T18:31:03.211Z,14.70
2023-05-16T18:33:33.041Z,14.70
2023-05-16T18:36:01.411Z,14.70
2023-05-16T18:38:33.343Z,14.70
2023-05-16T18:41:02.630Z,14.70
2023-05-16T18:43:31.270Z,14.70
2023-05-16T18:45:59.685Z,14.70
2023-05-16T18:48:28.124Z,14.70
2023-05-16T18:50:57.919Z,14.70
2023-05-16T18:53:26.228Z,14.70
2023-05-16T18:55:54.712Z,14.70
2023-05-16T18:58:23.252Z,14.70
2023-05-16T19:00:51.989Z,14.70
2023-05-16T19:03:20.522Z,14.70
2023-05-16T19:05:49.671Z,14.70
2023-05-16T19:08:19.572Z,14.80
2023-05-16T19:10:48.358Z,14.80
2023-05-16T19:13:16.866Z,14.70
2023-05-16T19:15:45.357Z,14.80
2023-05-16T19:18:13.896Z,14.80
2023-05-16T19:20:44.415Z,14.70
2023-05-16T19:23:14.078Z,14.80
2023-05-16T19:25:47.780Z,14.80
2023-05-16T19:28:16.931Z,14.80
2023-05-16T19:30:45.531Z,14.80
2023-05-16T19:33:15.067Z,14.80
2023-05-16T19:35:43.847Z,14.80
2023-05-16T19:38:12.285Z,14.80
2023-05-16T19:40:40.661Z,14.80
2023-05-16T19:43:10.565Z,14.80
2023-05-16T19:45:39.160Z,14.80
2023-05-16T19:48:08.264Z,14.80
2023-05-16T19:50:36.898Z,14.80
2023-05-16T19:53:06.755Z,14.80
2023-05-16T19:55:37.873Z,14.90
2023-05-16T19:58:06.744Z,14.80
2023-05-16T20:00:36.561Z,14.80
2023-05-16T20:03:05.023Z,15.10
2023-05-16T20:05:33.678Z,14.80
2023-05-16T20:08:02.153Z,14.80
2023-05-16T20:10:30.565Z,14.80
2023-05-16T20:12:58.955Z,14.80
2023-05-16T20:15:27.729Z,14.80
2023-05-16T20:17:57.841Z,14.90
2023-05-16T20:20:26.368Z,14.90
2023-05-16T20:22:54.999Z,14.80
2023-05-16T20:25:23.371Z,14.80
2023-05-16T20:27:51.836Z,14.80
2023-05-16T20:30:20.226Z,14.80
2023-05-16T20:32:48.607Z,14.70
2023-05-16T20:35:18.581Z,14.70
2023-05-16T20:37:46.976Z,14.60
2023-05-16T20:40:15.408Z,14.50
2023-05-16T20:42:43.713Z,14.50
2023-05-16T20:45:12.698Z,14.50
2023-05-16T20:47:41.237Z,14.50
2023-05-16T20:50:10.563Z,14.50
2023-05-16T20:52:40.277Z,14.50
2023-05-16T20:55:09.084Z,14.50
2023-05-16T20:57:37.417Z,14.50
2023-05-16T21:00:07.259Z,14.50
2023-05-16T21:02:35.789Z,14.50
2023-05-16T21:05:22.953Z,14.40
2023-05-16T21:07:53.757Z,14.40
2023-05-16T21:10:22.262Z,14.40
2023-05-16T21:12:50.836Z,14.40
2023-05-16T21:15:21.574Z,14.40
2023-05-16T21:17:51.531Z,14.30
2023-05-16T21:20:20.230Z,14.30
2023-05-16T21:22:48.600Z,14.20
2023-05-16T21:25:18.355Z,14.10
2023-05-16T21:27:46.785Z,14.20
2023-05-16T21:30:15.702Z,14.10
2023-05-16T21:32:44.187Z,14.10
2023-05-16T21:35:12.546Z,14.10
2023-05-16T21:37:40.870Z,14.00
2023-05-16T21:40:10.319Z,14.00
2023-05-16T21:42:40.161Z,14.00
2023-05-16T21:45:12.632Z,14.10
2023-05-16T21:47:41.180Z,14.00
2023-05-16T21:50:10.530Z,14.10
2023-05-16T21:52:39.123Z,14.10
2023-05-16T21:55:08.156Z,14.30
2023-05-16T21:57:38.716Z,14.00
2023-05-16T22:00:09.976Z,13.90
2023-05-16T22:02:38.649Z,13.90
2023-05-16T22:05:07.984Z,13.80
2023-05-16T22:07:36.560Z,13.80
2023-05-16T22:10:05.887Z,13.80
2023-05-16T22:12:34.250Z,13.80
2023-05-16T22:15:02.569Z,13.80
2023-05-16T22:17:32.357Z,13.80
2023-05-16T22:20:02.190Z,13.80
2023-05-16T22:22:30.572Z,13.80
2023-05-16T22:24:59.286Z,13.80
2023-05-16T22:27:27.662Z,13.80
2023-05-16T22:29:55.997Z,13.80
2023-05-16T22:32:24.293Z,13.80
2023-05-16T22:34:54.141Z,13.80
2023-05-16T22:37:22.435Z,13.80
2023-05-16T22:39:51.503Z,13.80
2023-05-16T22:42:20.006Z,13.80
2023-05-16T22:44:48.358Z,13.70
2023-05-16T22:47:16.647Z,13.80
2023-05-16T22:49:44.943Z,13.70
2023-05-16T22:52:14.790Z,13.70
2023-05-16T22:54:43.145Z,13.70
2023-05-16T22:57:11.522Z,13.70
2023-05-16T22:59:39.917Z,13.60
2023-05-16T23:02:08.349Z,13.70
2023-05-16T23:04:36.885Z,13.60
2023-05-16T23:07:05.551Z,13.60
2023-05-16T23:09:35.392Z,13.60
2023-05-16T23:12:04.093Z,13.60
2023-05-16T23:14:32.368Z,13.50
2023-05-16T23:17:01.102Z,13.60
2023-05-16T23:19:29.585Z,13.50
2023-05-16T23:21:57.987Z,13.60
2023-05-16T23:24:26.464Z,13.60
2023-05-16T23:26:56.161Z,13.60
2023-05-16T23:29:24.601Z,13.60
2023-05-16T23:31:52.982Z,13.60
2023-05-16T23:34:21.384Z,13.60
2023-05-16T23:36:49.688Z,13.60
2023-05-16T23:39:18.501Z,13.50
2023-05-16T23:41:46.836Z,13.50
2023-05-16T23:44:16.543Z,13.50
2023-05-16T23:46:44.894Z,13.50
2023-05-16T23:49:13.271Z,13.50
2023-05-16T23:51:55.449Z,13.50
2023-05-16T23:54:24.972Z,13.50
2023-05-16T23:56:53.316Z,13.50
2023-05-16T23:59:23.075Z,13.50
